sensor_id;sensor_type;location;lat;lon;timestamp;temperature;humidity
20574;DHT22;10445;50.216;7.912;2022-09-17T00:01:28;7.90;96.40
20574;DHT22;10445;50.216;7.912;2022-09-17T00:04:19;7.90;96.00
20574;DHT22;10445;50.216;7.912;2022-09-17T00:07:07;7.90;95.80
20574;DHT22;10445;50.216;7.912;2022-09-17T00:09:56;7.90;95.50
20574;DHT22;10445;50.216;7.912;2022-09-17T00:12:45;7.90;95.50
20574;DHT22;10445;50.216;7.912;2022-09-17T00:15:39;7.90;95.50
20574;DHT22;10445;50.216;7.912;2022-09-17T00:18:29;7.90;95.50
20574;DHT22;10445;50.216;7.912;2022-09-17T00:21:19;7.90;95.50
20574;DHT22;10445;50.216;7.912;2022-09-17T00:24:10;7.90;95.40
20574;DHT22;10445;50.216;7.912;2022-09-17T00:26:59;7.80;95.20
20574;DHT22;10445;50.216;7.912;2022-09-17T00:29:48;7.90;95.50
20574;DHT22;10445;50.216;7.912;2022-09-17T00:32:36;7.90;95.50
20574;DHT22;10445;50.216;7.912;2022-09-17T00:35:26;7.90;95.60
20574;DHT22;10445;50.216;7.912;2022-09-17T00:38:16;7.90;95.70
20574;DHT22;10445;50.216;7.912;2022-09-17T00:41:06;7.90;95.90
20574;DHT22;10445;50.216;7.912;2022-09-17T00:43:55;8.00;96.00
20574;DHT22;10445;50.216;7.912;2022-09-17T00:46:45;8.00;96.20
20574;DHT22;10445;50.216;7.912;2022-09-17T00:49:34;8.00;95.80
20574;DHT22;10445;50.216;7.912;2022-09-17T00:52:26;8.00;95.90
20574;DHT22;10445;50.216;7.912;2022-09-17T00:55:22;8.00;95.70
20574;DHT22;10445;50.216;7.912;2022-09-17T00:58:12;8.00;95.90
20574;DHT22;10445;50.216;7.912;2022-09-17T01:01:03;8.10;96.50
20574;DHT22;10445;50.216;7.912;2022-09-17T01:03:52;8.10;96.70
20574;DHT22;10445;50.216;7.912;2022-09-17T01:06:47;8.10;96.60
20574;DHT22;10445;50.216;7.912;2022-09-17T01:09:44;8.20;96.60
20574;DHT22;10445;50.216;7.912;2022-09-17T01:12:46;8.10;96.20
20574;DHT22;10445;50.216;7.912;2022-09-17T01:15:42;8.10;96.30
20574;DHT22;10445;50.216;7.912;2022-09-17T01:18:50;8.20;96.40
20574;DHT22;10445;50.216;7.912;2022-09-17T01:21:51;8.10;96.80
20574;DHT22;10445;50.216;7.912;2022-09-17T01:25:02;8.20;97.00
20574;DHT22;10445;50.216;7.912;2022-09-17T01:28:14;8.20;96.90
20574;DHT22;10445;50.216;7.912;2022-09-17T01:31:27;8.20;96.50
20574;DHT22;10445;50.216;7.912;2022-09-17T01:34:23;8.20;96.60
20574;DHT22;10445;50.216;7.912;2022-09-17T01:37:16;8.20;96.70
20574;DHT22;10445;50.216;7.912;2022-09-17T01:40:09;8.20;96.70
20574;DHT22;10445;50.216;7.912;2022-09-17T01:43:05;8.20;96.90
20574;DHT22;10445;50.216;7.912;2022-09-17T01:45:58;8.20;97.10
20574;DHT22;10445;50.216;7.912;2022-09-17T01:48:50;8.20;97.50
20574;DHT22;10445;50.216;7.912;2022-09-17T01:51:44;8.20;98.00
20574;DHT22;10445;50.216;7.912;2022-09-17T01:54:38;8.20;98.40
20574;DHT22;10445;50.216;7.912;2022-09-17T01:57:31;8.20;98.40
20574;DHT22;10445;50.216;7.912;2022-09-17T02:00:21;8.20;98.80
20574;DHT22;10445;50.216;7.912;2022-09-17T02:03:15;8.20;98.80
20574;DHT22;10445;50.216;7.912;2022-09-17T02:06:09;8.20;99.00
20574;DHT22;10445;50.216;7.912;2022-09-17T02:09:04;8.20;99.20
20574;DHT22;10445;50.216;7.912;2022-09-17T02:12:00;8.10;99.50
20574;DHT22;10445;50.216;7.912;2022-09-17T02:14:51;8.10;99.70
20574;DHT22;10445;50.216;7.912;2022-09-17T02:17:45;8.10;99.70
20574;DHT22;10445;50.216;7.912;2022-09-17T02:20:40;8.10;99.80
20574;DHT22;10445;50.216;7.912;2022-09-17T02:23:34;8.10;99.90
20574;DHT22;10445;50.216;7.912;2022-09-17T02:26:25;8.10;99.90
20574;DHT22;10445;50.216;7.912;2022-09-17T02:29:22;8.10;99.90
20574;DHT22;10445;50.216;7.912;2022-09-17T02:32:13;8.10;99.90
20574;DHT22;10445;50.216;7.912;2022-09-17T02:35:02;8.00;99.90
20574;DHT22;10445;50.216;7.912;2022-09-17T02:37:50;8.00;99.90
20574;DHT22;10445;50.216;7.912;2022-09-17T02:40:46;8.10;99.90
20574;DHT22;10445;50.216;7.912;2022-09-17T02:43:42;8.00;99.90
20574;DHT22;10445;50.216;7.912;2022-09-17T02:50:10;8.10;99.90
20574;DHT22;10445;50.216;7.912;2022-09-17T02:53:18;8.00;99.90
20574;DHT22;10445;50.216;7.912;2022-09-17T02:56:18;8.00;99.90
20574;DHT22;10445;50.216;7.912;2022-09-17T02:59:14;8.00;99.90
20574;DHT22;10445;50.216;7.912;2022-09-17T03:02:10;8.00;99.90
20574;DHT22;10445;50.216;7.912;2022-09-17T03:05:06;8.00;99.90
20574;DHT22;10445;50.216;7.912;2022-09-17T03:07:56;8.00;99.90
20574;DHT22;10445;50.216;7.912;2022-09-17T03:10:46;8.00;99.90
20574;DHT22;10445;50.216;7.912;2022-09-17T03:13:38;8.00;99.90
20574;DHT22;10445;50.216;7.912;2022-09-17T03:16:27;8.00;99.90
20574;DHT22;10445;50.216;7.912;2022-09-17T03:19:15;8.00;99.90
20574;DHT22;10445;50.216;7.912;2022-09-17T03:22:04;8.00;99.90
20574;DHT22;10445;50.216;7.912;2022-09-17T03:24:53;8.00;99.90
20574;DHT22;10445;50.216;7.912;2022-09-17T03:27:42;8.10;99.90
20574;DHT22;10445;50.216;7.912;2022-09-17T03:30:32;8.10;99.90
20574;DHT22;10445;50.216;7.912;2022-09-17T03:33:21;8.10;99.90
20574;DHT22;10445;50.216;7.912;2022-09-17T03:36:09;8.10;99.90
20574;DHT22;10445;50.216;7.912;2022-09-17T03:38:58;8.10;99.90
20574;DHT22;10445;50.216;7.912;2022-09-17T03:41:47;8.00;99.90
20574;DHT22;10445;50.216;7.912;2022-09-17T03:44:36;8.00;99.90
20574;DHT22;10445;50.216;7.912;2022-09-17T03:47:32;8.00;99.90
20574;DHT22;10445;50.216;7.912;2022-09-17T03:50:21;8.00;99.90
20574;DHT22;10445;50.216;7.912;2022-09-17T03:53:09;8.00;99.90
20574;DHT22;10445;50.216;7.912;2022-09-17T03:55:59;8.00;99.90
20574;DHT22;10445;50.216;7.912;2022-09-17T03:58:48;8.00;99.90
20574;DHT22;10445;50.216;7.912;2022-09-17T04:01:36;8.00;99.90
20574;DHT22;10445;50.216;7.912;2022-09-17T04:04:27;8.00;99.90
20574;DHT22;10445;50.216;7.912;2022-09-17T04:07:16;8.00;99.90
20574;DHT22;10445;50.216;7.912;2022-09-17T04:10:05;8.00;99.90
20574;DHT22;10445;50.216;7.912;2022-09-17T04:12:54;8.00;99.90
20574;DHT22;10445;50.216;7.912;2022-09-17T04:15:43;8.00;99.90
20574;DHT22;10445;50.216;7.912;2022-09-17T04:18:33;8.00;99.90
20574;DHT22;10445;50.216;7.912;2022-09-17T04:21:23;8.00;99.90
20574;DHT22;10445;50.216;7.912;2022-09-17T04:24:12;8.00;99.90
20574;DHT22;10445;50.216;7.912;2022-09-17T04:27:00;8.00;99.90
20574;DHT22;10445;50.216;7.912;2022-09-17T04:29:49;8.00;99.90
20574;DHT22;10445;50.216;7.912;2022-09-17T04:32:38;8.00;99.90
20574;DHT22;10445;50.216;7.912;2022-09-17T04:35:26;8.10;99.90
20574;DHT22;10445;50.216;7.912;2022-09-17T04:38:16;8.00;99.90
20574;DHT22;10445;50.216;7.912;2022-09-17T04:41:07;8.00;99.90
20574;DHT22;10445;50.216;7.912;2022-09-17T04:43:56;8.00;99.90
20574;DHT22;10445;50.216;7.912;2022-09-17T04:46:44;8.00;99.90
20574;DHT22;10445;50.216;7.912;2022-09-17T04:49:33;8.10;99.90
20574;DHT22;10445;50.216;7.912;2022-09-17T04:52:22;8.10;99.90
20574;DHT22;10445;50.216;7.912;2022-09-17T04:55:18;8.20;99.90
20574;DHT22;10445;50.216;7.912;2022-09-17T04:58:07;8.20;99.90
20574;DHT22;10445;50.216;7.912;2022-09-17T05:00:55;8.20;99.90
20574;DHT22;10445;50.216;7.912;2022-09-17T05:03:44;8.20;99.90
20574;DHT22;10445;50.216;7.912;2022-09-17T05:06:33;8.20;99.90
20574;DHT22;10445;50.216;7.912;2022-09-17T05:09:22;8.20;99.90
20574;DHT22;10445;50.216;7.912;2022-09-17T05:12:12;8.30;99.90
20574;DHT22;10445;50.216;7.912;2022-09-17T05:15:00;8.20;99.90
20574;DHT22;10445;50.216;7.912;2022-09-17T05:17:49;8.30;99.90
20574;DHT22;10445;50.216;7.912;2022-09-17T05:20:38;8.30;99.90
20574;DHT22;10445;50.216;7.912;2022-09-17T05:23:27;8.20;99.90
20574;DHT22;10445;50.216;7.912;2022-09-17T05:26:16;8.30;99.90
20574;DHT22;10445;50.216;7.912;2022-09-17T05:29:06;8.30;99.90
20574;DHT22;10445;50.216;7.912;2022-09-17T05:31:55;8.40;99.90
20574;DHT22;10445;50.216;7.912;2022-09-17T05:34:43;8.40;99.90
20574;DHT22;10445;50.216;7.912;2022-09-17T05:37:32;8.40;99.90
20574;DHT22;10445;50.216;7.912;2022-09-17T05:40:21;8.40;99.90
20574;DHT22;10445;50.216;7.912;2022-09-17T05:43:10;8.40;99.90
20574;DHT22;10445;50.216;7.912;2022-09-17T05:46:02;8.40;99.90
20574;DHT22;10445;50.216;7.912;2022-09-17T05:48:54;8.40;99.90
20574;DHT22;10445;50.216;7.912;2022-09-17T05:51:43;8.40;99.90
20574;DHT22;10445;50.216;7.912;2022-09-17T05:54:32;8.50;99.90
20574;DHT22;10445;50.216;7.912;2022-09-17T05:57:20;8.50;99.90
20574;DHT22;10445;50.216;7.912;2022-09-17T06:00:10;8.50;99.90
20574;DHT22;10445;50.216;7.912;2022-09-17T06:03:00;8.60;99.90
20574;DHT22;10445;50.216;7.912;2022-09-17T06:05:53;8.60;99.90
20574;DHT22;10445;50.216;7.912;2022-09-17T06:08:42;8.60;99.90
20574;DHT22;10445;50.216;7.912;2022-09-17T06:11:31;8.70;99.90
20574;DHT22;10445;50.216;7.912;2022-09-17T06:14:19;8.70;99.90
20574;DHT22;10445;50.216;7.912;2022-09-17T06:17:08;8.70;99.90
20574;DHT22;10445;50.216;7.912;2022-09-17T06:19:58;8.70;99.90
20574;DHT22;10445;50.216;7.912;2022-09-17T06:22:47;8.80;99.90
20574;DHT22;10445;50.216;7.912;2022-09-17T06:25:36;8.80;99.90
20574;DHT22;10445;50.216;7.912;2022-09-17T06:28:25;8.80;99.90
20574;DHT22;10445;50.216;7.912;2022-09-17T06:31:14;8.90;99.90
20574;DHT22;10445;50.216;7.912;2022-09-17T06:34:02;8.90;99.90
20574;DHT22;10445;50.216;7.912;2022-09-17T06:36:53;8.90;99.90
20574;DHT22;10445;50.216;7.912;2022-09-17T06:39:42;8.90;99.90
20574;DHT22;10445;50.216;7.912;2022-09-17T06:42:31;8.90;99.90
20574;DHT22;10445;50.216;7.912;2022-09-17T06:45:19;8.90;99.90
20574;DHT22;10445;50.216;7.912;2022-09-17T06:48:08;8.90;99.90
20574;DHT22;10445;50.216;7.912;2022-09-17T06:51:01;9.00;99.90
20574;DHT22;10445;50.216;7.912;2022-09-17T06:53:51;9.00;99.90
20574;DHT22;10445;50.216;7.912;2022-09-17T06:56:40;9.00;99.90
20574;DHT22;10445;50.216;7.912;2022-09-17T06:59:29;9.00;99.90
20574;DHT22;10445;50.216;7.912;2022-09-17T07:02:17;9.00;99.90
20574;DHT22;10445;50.216;7.912;2022-09-17T07:05:08;9.00;99.90
20574;DHT22;10445;50.216;7.912;2022-09-17T07:08:00;9.10;99.90
20574;DHT22;10445;50.216;7.912;2022-09-17T07:10:50;9.10;99.90
20574;DHT22;10445;50.216;7.912;2022-09-17T07:13:42;9.20;99.90
20574;DHT22;10445;50.216;7.912;2022-09-17T07:16:31;9.20;99.90
20574;DHT22;10445;50.216;7.912;2022-09-17T07:19:22;9.30;99.90
20574;DHT22;10445;50.216;7.912;2022-09-17T07:22:11;9.30;99.90
20574;DHT22;10445;50.216;7.912;2022-09-17T07:25:00;9.40;99.90
20574;DHT22;10445;50.216;7.912;2022-09-17T07:27:50;9.50;99.90
20574;DHT22;10445;50.216;7.912;2022-09-17T07:30:39;9.40;99.90
20574;DHT22;10445;50.216;7.912;2022-09-17T07:33:28;9.40;99.50
20574;DHT22;10445;50.216;7.912;2022-09-17T07:36:17;9.40;99.60
20574;DHT22;10445;50.216;7.912;2022-09-17T07:39:06;9.40;99.90
20574;DHT22;10445;50.216;7.912;2022-09-17T07:41:55;9.40;99.90
20574;DHT22;10445;50.216;7.912;2022-09-17T07:44:46;9.40;99.90
20574;DHT22;10445;50.216;7.912;2022-09-17T07:47:38;9.40;99.90
20574;DHT22;10445;50.216;7.912;2022-09-17T07:50:27;9.50;99.90
20574;DHT22;10445;50.216;7.912;2022-09-17T07:53:18;9.50;99.40
20574;DHT22;10445;50.216;7.912;2022-09-17T07:56:07;9.60;99.70
20574;DHT22;10445;50.216;7.912;2022-09-17T07:58:58;9.70;99.00
20574;DHT22;10445;50.216;7.912;2022-09-17T08:01:48;9.80;98.80
20574;DHT22;10445;50.216;7.912;2022-09-17T08:04:37;9.90;98.20
20574;DHT22;10445;50.216;7.912;2022-09-17T08:07:26;9.90;96.60
20574;DHT22;10445;50.216;7.912;2022-09-17T08:10:15;9.90;95.90
20574;DHT22;10445;50.216;7.912;2022-09-17T08:13:07;9.90;96.70
20574;DHT22;10445;50.216;7.912;2022-09-17T08:15:59;9.80;96.10
20574;DHT22;10445;50.216;7.912;2022-09-17T08:18:53;9.80;97.20
20574;DHT22;10445;50.216;7.912;2022-09-17T08:21:42;9.80;95.90
20574;DHT22;10445;50.216;7.912;2022-09-17T08:24:31;9.80;97.50
20574;DHT22;10445;50.216;7.912;2022-09-17T08:27:20;9.80;96.00
20574;DHT22;10445;50.216;7.912;2022-09-17T08:30:09;9.70;96.00
20574;DHT22;10445;50.216;7.912;2022-09-17T08:32:58;9.80;96.60
20574;DHT22;10445;50.216;7.912;2022-09-17T08:35:51;9.90;96.20
20574;DHT22;10445;50.216;7.912;2022-09-17T08:38:41;10.10;97.30
20574;DHT22;10445;50.216;7.912;2022-09-17T08:41:39;10.50;98.40
20574;DHT22;10445;50.216;7.912;2022-09-17T08:44:34;10.70;95.70
20574;DHT22;10445;50.216;7.912;2022-09-17T08:47:29;10.80;91.20
20574;DHT22;10445;50.216;7.912;2022-09-17T08:50:27;10.70;88.60
20574;DHT22;10445;50.216;7.912;2022-09-17T08:53:42;10.50;83.50
20574;DHT22;10445;50.216;7.912;2022-09-17T08:56:36;10.30;87.20
20574;DHT22;10445;50.216;7.912;2022-09-17T08:59:28;10.10;89.20
20574;DHT22;10445;50.216;7.912;2022-09-17T09:02:36;9.90;91.00
20574;DHT22;10445;50.216;7.912;2022-09-17T09:05:29;9.40;83.40
20574;DHT22;10445;50.216;7.912;2022-09-17T09:08:25;8.90;86.30
20574;DHT22;10445;50.216;7.912;2022-09-17T09:11:22;8.50;89.10
20574;DHT22;10445;50.216;7.912;2022-09-17T09:14:18;8.50;94.90
20574;DHT22;10445;50.216;7.912;2022-09-17T09:17:09;8.60;96.60
20574;DHT22;10445;50.216;7.912;2022-09-17T09:19:58;8.80;98.00
20574;DHT22;10445;50.216;7.912;2022-09-17T09:22:49;8.90;97.00
20574;DHT22;10445;50.216;7.912;2022-09-17T09:25:46;9.00;98.10
20574;DHT22;10445;50.216;7.912;2022-09-17T09:29:09;9.10;98.10
20574;DHT22;10445;50.216;7.912;2022-09-17T09:32:12;9.30;99.40
20574;DHT22;10445;50.216;7.912;2022-09-17T09:35:14;9.30;97.50
20574;DHT22;10445;50.216;7.912;2022-09-17T09:38:09;9.40;98.00
20574;DHT22;10445;50.216;7.912;2022-09-17T09:41:06;9.40;97.20
20574;DHT22;10445;50.216;7.912;2022-09-17T09:44:01;9.50;96.10
20574;DHT22;10445;50.216;7.912;2022-09-17T09:47:06;9.60;95.90
20574;DHT22;10445;50.216;7.912;2022-09-17T09:50:14;9.60;96.00
20574;DHT22;10445;50.216;7.912;2022-09-17T09:53:11;9.70;95.70
20574;DHT22;10445;50.216;7.912;2022-09-17T09:56:12;9.70;95.20
20574;DHT22;10445;50.216;7.912;2022-09-17T09:59:13;9.80;96.10
20574;DHT22;10445;50.216;7.912;2022-09-17T10:02:03;10.10;94.30
20574;DHT22;10445;50.216;7.912;2022-09-17T10:04:52;10.40;94.20
20574;DHT22;10445;50.216;7.912;2022-09-17T10:07:42;10.50;92.80
20574;DHT22;10445;50.216;7.912;2022-09-17T10:10:31;10.60;87.20
20574;DHT22;10445;50.216;7.912;2022-09-17T10:13:20;10.70;86.80
20574;DHT22;10445;50.216;7.912;2022-09-17T10:16:19;10.80;80.20
20574;DHT22;10445;50.216;7.912;2022-09-17T10:19:13;10.90;75.60
20574;DHT22;10445;50.216;7.912;2022-09-17T10:22:23;11.00;75.40
20574;DHT22;10445;50.216;7.912;2022-09-17T10:25:30;11.10;75.90
20574;DHT22;10445;50.216;7.912;2022-09-17T10:28:31;11.30;65.30
20574;DHT22;10445;50.216;7.912;2022-09-17T10:31:22;11.10;62.30
20574;DHT22;10445;50.216;7.912;2022-09-17T10:34:18;11.10;57.40
20574;DHT22;10445;50.216;7.912;2022-09-17T10:37:32;11.10;57.00
20574;DHT22;10445;50.216;7.912;2022-09-17T10:40:27;11.10;55.30
20574;DHT22;10445;50.216;7.912;2022-09-17T10:43:21;11.00;50.10
20574;DHT22;10445;50.216;7.912;2022-09-17T10:46:14;11.10;55.00
20574;DHT22;10445;50.216;7.912;2022-09-17T10:49:09;11.30;55.30
20574;DHT22;10445;50.216;7.912;2022-09-17T10:52:10;11.40;50.50
20574;DHT22;10445;50.216;7.912;2022-09-17T10:55:21;11.50;46.40
20574;DHT22;10445;50.216;7.912;2022-09-17T10:58:22;11.60;36.80
20574;DHT22;10445;50.216;7.912;2022-09-17T11:01:22;11.60;37.40
20574;DHT22;10445;50.216;7.912;2022-09-17T11:04:27;11.70;31.60
20574;DHT22;10445;50.216;7.912;2022-09-17T11:07:32;11.60;27.80
20574;DHT22;10445;50.216;7.912;2022-09-17T11:10:26;11.60;34.00
20574;DHT22;10445;50.216;7.912;2022-09-17T11:13:24;11.70;29.50
20574;DHT22;10445;50.216;7.912;2022-09-17T11:16:28;11.80;21.80
20574;DHT22;10445;50.216;7.912;2022-09-17T11:19:34;11.80;21.00
20574;DHT22;10445;50.216;7.912;2022-09-17T11:22:39;11.90;21.10
20574;DHT22;10445;50.216;7.912;2022-09-17T11:25:38;12.00;18.10
20574;DHT22;10445;50.216;7.912;2022-09-17T11:28:47;12.10;17.40
20574;DHT22;10445;50.216;7.912;2022-09-17T11:31:48;12.00;15.90
20574;DHT22;10445;50.216;7.912;2022-09-17T11:34:42;12.10;19.90
20574;DHT22;10445;50.216;7.912;2022-09-17T11:37:36;12.30;19.20
20574;DHT22;10445;50.216;7.912;2022-09-17T11:40:33;12.50;18.20
20574;DHT22;10445;50.216;7.912;2022-09-17T11:43:25;12.60;15.50
20574;DHT22;10445;50.216;7.912;2022-09-17T11:46:19;12.70;12.20
20574;DHT22;10445;50.216;7.912;2022-09-17T11:49:12;12.60;11.90
20574;DHT22;10445;50.216;7.912;2022-09-17T11:52:06;12.50;9.80
20574;DHT22;10445;50.216;7.912;2022-09-17T11:55:00;12.30;7.30
20574;DHT22;10445;50.216;7.912;2022-09-17T11:57:56;12.40;9.10
20574;DHT22;10445;50.216;7.912;2022-09-17T12:00:51;12.50;7.90
20574;DHT22;10445;50.216;7.912;2022-09-17T12:03:47;12.50;10.10
20574;DHT22;10445;50.216;7.912;2022-09-17T12:06:42;12.30;12.50
20574;DHT22;10445;50.216;7.912;2022-09-17T12:09:35;12.20;15.10
20574;DHT22;10445;50.216;7.912;2022-09-17T12:12:26;11.90;17.50
20574;DHT22;10445;50.216;7.912;2022-09-17T12:15:38;12.00;22.40
20574;DHT22;10445;50.216;7.912;2022-09-17T12:18:34;12.20;19.40
20574;DHT22;10445;50.216;7.912;2022-09-17T12:21:34;12.30;20.90
20574;DHT22;10445;50.216;7.912;2022-09-17T12:24:26;12.20;23.00
20574;DHT22;10445;50.216;7.912;2022-09-17T12:27:26;12.10;24.20
20574;DHT22;10445;50.216;7.912;2022-09-17T12:30:19;11.90;20.80
20574;DHT22;10445;50.216;7.912;2022-09-17T12:33:18;11.60;20.20
20574;DHT22;10445;50.216;7.912;2022-09-17T12:36:20;11.30;25.00
20574;DHT22;10445;50.216;7.912;2022-09-17T12:39:47;11.20;30.00
20574;DHT22;10445;50.216;7.912;2022-09-17T12:42:51;11.30;35.40
20574;DHT22;10445;50.216;7.912;2022-09-17T12:45:54;11.60;34.60
20574;DHT22;10445;50.216;7.912;2022-09-17T12:49:02;11.90;36.40
20574;DHT22;10445;50.216;7.912;2022-09-17T12:51:57;12.10;34.50
20574;DHT22;10445;50.216;7.912;2022-09-17T12:55:09;12.20;32.40
20574;DHT22;10445;50.216;7.912;2022-09-17T12:58:16;12.10;32.40
20574;DHT22;10445;50.216;7.912;2022-09-17T13:01:16;11.90;30.80
20574;DHT22;10445;50.216;7.912;2022-09-17T13:04:17;11.80;38.90
20574;DHT22;10445;50.216;7.912;2022-09-17T13:07:52;12.20;48.40
20574;DHT22;10445;50.216;7.912;2022-09-17T13:11:13;12.90;35.40
20574;DHT22;10445;50.216;7.912;2022-09-17T13:14:14;14.00;18.80
20574;DHT22;10445;50.216;7.912;2022-09-17T13:17:14;15.20;7.70
20574;DHT22;10445;50.216;7.912;2022-09-17T13:20:14;15.20;1.00
20574;DHT22;10445;50.216;7.912;2022-09-17T13:23:04;14.60;3.20
20574;DHT22;10445;50.216;7.912;2022-09-17T13:25:53;14.20;7.30
20574;DHT22;10445;50.216;7.912;2022-09-17T13:28:44;14.00;12.10
20574;DHT22;10445;50.216;7.912;2022-09-17T13:31:45;13.90;11.90
20574;DHT22;10445;50.216;7.912;2022-09-17T13:34:35;13.60;11.30
20574;DHT22;10445;50.216;7.912;2022-09-17T13:37:23;13.50;12.30
20574;DHT22;10445;50.216;7.912;2022-09-17T13:40:19;13.40;11.20
20574;DHT22;10445;50.216;7.912;2022-09-17T13:43:12;13.30;11.70
20574;DHT22;10445;50.216;7.912;2022-09-17T13:46:21;13.10;10.30
20574;DHT22;10445;50.216;7.912;2022-09-17T13:49:15;12.90;11.20
20574;DHT22;10445;50.216;7.912;2022-09-17T13:52:04;12.70;15.30
20574;DHT22;10445;50.216;7.912;2022-09-17T13:54:58;12.50;14.90
20574;DHT22;10445;50.216;7.912;2022-09-17T13:57:49;12.40;18.40
20574;DHT22;10445;50.216;7.912;2022-09-17T14:00:53;12.30;16.90
20574;DHT22;10445;50.216;7.912;2022-09-17T14:03:50;12.20;19.10
20574;DHT22;10445;50.216;7.912;2022-09-17T14:06:58;12.20;16.90
20574;DHT22;10445;50.216;7.912;2022-09-17T14:09:52;12.30;19.50
20574;DHT22;10445;50.216;7.912;2022-09-17T14:13:15;12.30;19.00
20574;DHT22;10445;50.216;7.912;2022-09-17T14:16:33;12.20;17.00
20574;DHT22;10445;50.216;7.912;2022-09-17T14:19:33;12.00;16.60
20574;DHT22;10445;50.216;7.912;2022-09-17T14:22:29;12.00;19.50
20574;DHT22;10445;50.216;7.912;2022-09-17T14:25:18;11.90;20.90
20574;DHT22;10445;50.216;7.912;2022-09-17T14:28:14;11.90;18.20
20574;DHT22;10445;50.216;7.912;2022-09-17T14:31:10;11.70;18.40
20574;DHT22;10445;50.216;7.912;2022-09-17T14:34:04;11.70;21.20
20574;DHT22;10445;50.216;7.912;2022-09-17T14:36:55;11.50;22.40
20574;DHT22;10445;50.216;7.912;2022-09-17T14:39:45;11.40;23.00
20574;DHT22;10445;50.216;7.912;2022-09-17T14:42:36;11.30;24.60
20574;DHT22;10445;50.216;7.912;2022-09-17T14:45:31;11.30;36.50
20574;DHT22;10445;50.216;7.912;2022-09-17T14:48:29;11.30;39.50
20574;DHT22;10445;50.216;7.912;2022-09-17T14:51:28;11.30;43.30
20574;DHT22;10445;50.216;7.912;2022-09-17T14:54:19;11.20;46.10
20574;DHT22;10445;50.216;7.912;2022-09-17T14:57:21;11.20;47.90
20574;DHT22;10445;50.216;7.912;2022-09-17T15:00:17;11.20;48.50
20574;DHT22;10445;50.216;7.912;2022-09-17T15:03:20;11.20;48.00
20574;DHT22;10445;50.216;7.912;2022-09-17T15:06:19;11.30;46.10
20574;DHT22;10445;50.216;7.912;2022-09-17T15:09:13;11.30;50.50
20574;DHT22;10445;50.216;7.912;2022-09-17T15:12:04;11.40;47.30
20574;DHT22;10445;50.216;7.912;2022-09-17T15:14:56;11.40;53.00
20574;DHT22;10445;50.216;7.912;2022-09-17T15:17:46;11.50;55.50
20574;DHT22;10445;50.216;7.912;2022-09-17T15:20:35;11.40;47.90
20574;DHT22;10445;50.216;7.912;2022-09-17T15:23:25;11.40;50.10
20574;DHT22;10445;50.216;7.912;2022-09-17T15:26:20;11.40;51.30
20574;DHT22;10445;50.216;7.912;2022-09-17T15:29:10;11.30;53.50
20574;DHT22;10445;50.216;7.912;2022-09-17T15:32:03;11.20;52.00
20574;DHT22;10445;50.216;7.912;2022-09-17T15:35:22;11.10;58.10
20574;DHT22;10445;50.216;7.912;2022-09-17T15:38:24;10.80;51.40
20574;DHT22;10445;50.216;7.912;2022-09-17T15:41:31;10.60;53.00
20574;DHT22;10445;50.216;7.912;2022-09-17T15:44:22;10.50;58.00
20574;DHT22;10445;50.216;7.912;2022-09-17T15:47:52;10.50;55.90
20574;DHT22;10445;50.216;7.912;2022-09-17T15:50:49;10.30;57.40
20574;DHT22;10445;50.216;7.912;2022-09-17T15:53:49;10.20;59.10
20574;DHT22;10445;50.216;7.912;2022-09-17T15:56:39;10.20;61.90
20574;DHT22;10445;50.216;7.912;2022-09-17T15:59:30;10.20;62.20
20574;DHT22;10445;50.216;7.912;2022-09-17T16:02:25;10.20;62.60
20574;DHT22;10445;50.216;7.912;2022-09-17T16:08:34;10.30;61.90
20574;DHT22;10445;50.216;7.912;2022-09-17T16:11:24;10.40;62.60
20574;DHT22;10445;50.216;7.912;2022-09-17T16:14:13;10.50;57.60
20574;DHT22;10445;50.216;7.912;2022-09-17T16:17:16;10.60;58.10
20574;DHT22;10445;50.216;7.912;2022-09-17T16:20:13;10.60;58.80
20574;DHT22;10445;50.216;7.912;2022-09-17T16:23:02;10.60;55.70
20574;DHT22;10445;50.216;7.912;2022-09-17T16:25:52;10.60;57.40
20574;DHT22;10445;50.216;7.912;2022-09-17T16:28:41;10.70;56.00
20574;DHT22;10445;50.216;7.912;2022-09-17T16:31:30;10.60;55.80
20574;DHT22;10445;50.216;7.912;2022-09-17T16:34:19;10.60;56.70
20574;DHT22;10445;50.216;7.912;2022-09-17T16:37:08;10.50;56.60
20574;DHT22;10445;50.216;7.912;2022-09-17T16:39:57;10.50;58.80
20574;DHT22;10445;50.216;7.912;2022-09-17T16:42:48;10.50;58.10
20574;DHT22;10445;50.216;7.912;2022-09-17T16:45:39;10.50;58.70
20574;DHT22;10445;50.216;7.912;2022-09-17T16:48:27;10.50;62.20
20574;DHT22;10445;50.216;7.912;2022-09-17T16:51:16;10.40;66.50
20574;DHT22;10445;50.216;7.912;2022-09-17T16:54:08;10.30;69.40
20574;DHT22;10445;50.216;7.912;2022-09-17T16:56:56;10.20;69.70
20574;DHT22;10445;50.216;7.912;2022-09-17T16:59:46;10.00;65.70
20574;DHT22;10445;50.216;7.912;2022-09-17T17:02:35;9.90;67.20
20574;DHT22;10445;50.216;7.912;2022-09-17T17:05:25;9.90;69.40
20574;DHT22;10445;50.216;7.912;2022-09-17T17:08:14;9.90;73.10
20574;DHT22;10445;50.216;7.912;2022-09-17T17:11:03;9.90;74.30
20574;DHT22;10445;50.216;7.912;2022-09-17T17:13:51;9.80;75.30
20574;DHT22;10445;50.216;7.912;2022-09-17T17:16:44;9.80;75.10
20574;DHT22;10445;50.216;7.912;2022-09-17T17:19:34;9.80;74.80
20574;DHT22;10445;50.216;7.912;2022-09-17T17:22:23;9.80;74.80
20574;DHT22;10445;50.216;7.912;2022-09-17T17:25:13;9.70;78.80
20574;DHT22;10445;50.216;7.912;2022-09-17T17:28:02;9.70;82.00
20574;DHT22;10445;50.216;7.912;2022-09-17T17:30:51;9.60;85.90
20574;DHT22;10445;50.216;7.912;2022-09-17T17:33:41;9.50;88.40
20574;DHT22;10445;50.216;7.912;2022-09-17T17:36:30;9.40;87.90
20574;DHT22;10445;50.216;7.912;2022-09-17T17:39:18;9.20;79.70
20574;DHT22;10445;50.216;7.912;2022-09-17T17:42:07;9.10;81.60
20574;DHT22;10445;50.216;7.912;2022-09-17T17:44:56;9.00;83.80
20574;DHT22;10445;50.216;7.912;2022-09-17T17:47:44;9.00;85.60
20574;DHT22;10445;50.216;7.912;2022-09-17T17:50:35;9.00;87.80
20574;DHT22;10445;50.216;7.912;2022-09-17T17:53:23;9.10;89.70
20574;DHT22;10445;50.216;7.912;2022-09-17T17:56:12;9.10;90.20
20574;DHT22;10445;50.216;7.912;2022-09-17T17:59:01;9.00;90.80
20574;DHT22;10445;50.216;7.912;2022-09-17T18:01:50;9.00;91.60
20574;DHT22;10445;50.216;7.912;2022-09-17T18:04:39;9.00;91.60
20574;DHT22;10445;50.216;7.912;2022-09-17T18:07:29;9.00;92.00
20574;DHT22;10445;50.216;7.912;2022-09-17T18:10:17;9.00;92.30
20574;DHT22;10445;50.216;7.912;2022-09-17T18:13:06;8.90;93.00
20574;DHT22;10445;50.216;7.912;2022-09-17T18:15:56;8.80;93.60
20574;DHT22;10445;50.216;7.912;2022-09-17T18:18:46;8.70;94.00
20574;DHT22;10445;50.216;7.912;2022-09-17T18:21:34;8.60;93.10
20574;DHT22;10445;50.216;7.912;2022-09-17T18:24:24;8.40;93.40
20574;DHT22;10445;50.216;7.912;2022-09-17T18:27:13;8.40;93.20
20574;DHT22;10445;50.216;7.912;2022-09-17T18:30:03;8.30;94.40
20574;DHT22;10445;50.216;7.912;2022-09-17T18:32:51;8.30;94.90
20574;DHT22;10445;50.216;7.912;2022-09-17T18:35:40;8.30;95.00